Flight Track Log - Related Links

Times and Time Zones

All times are in EST time to prevent confusion due to time zone crossing. See the N304LG flight status page for this flight to view local times or setup timezone preferences in your user account.

Time Position Orientation Groundspeed Altitude Reporting Facility
EST Latitude Longitude Course Direction KTS MPH feet Rate Location/Type
Sat 08:12:34 AM 29.5464 -98.4922 265° West 125 144 1,200  Level Houston Center
Sat 08:13:11 AM 29.5444 -98.5189 265° West 140 161 1,900 866 Climbing Houston Center
Sat 08:14:11 AM 29.5203 -98.5531 231° Southwest 180 207 2,600 793 Climbing Houston Center
Sat 08:15:12 AM 29.4792 -98.5381 162° South 163 188 3,500 787 Climbing Houston Center
Sat 08:16:13 AM 29.4414 -98.5169 154° Southeast 146 168 4,200 893 Climbing Houston Center
Sat 08:17:13 AM 29.4100 -98.4942 148° Southeast 140 161 5,300 1,082 Climbing Houston Center
Sat 08:17:14 AM 29.4097 -98.4936 120° Southeast 143 165 5,300 787 Level Houston Center
Sat 08:18:14 AM 29.3719 -98.4700 151° Southeast 144 166 6,100 787 Climbing Houston Center
Sat 08:18:15 AM 29.3725 -98.4694 41° Northeast 144 166 6,100 871 Level Houston Center
Sat 08:19:16 AM 29.3339 -98.4458 152° Southeast 154 177 7,000 934 Climbing Houston Center
Sat 08:20:17 AM 29.2958 -98.4247 154° Southeast 152 175 8,000 893 Climbing Houston Center
Sat 08:21:17 AM 29.2583 -98.4089 160° South 146 168 8,800 843 Climbing Houston Center
Sat 08:22:18 AM 29.2183 -98.3908 158° South 153 176 9,700 885 Climbing Houston Center
Sat 08:23:19 AM 29.1775 -98.3717 158° South 149 171 10,600 787 Climbing Houston Center
Sat 08:24:20 AM 29.1358 -98.3575 163° South 156 180 11,300 738 Climbing Houston Center
Sat 08:25:21 AM 29.0914 -98.3461 167° South 162 186 12,100 787 Climbing Houston Center
Sat 08:26:22 AM 29.0467 -98.3347 167° South 163 188 12,900 787 Climbing Houston Center
Sat 08:27:23 AM 28.9981 -98.3247 170° South 164 189 13,700 738 Climbing Houston Center
Sat 08:28:24 AM 28.9533 -98.3094 163° South 167 192 14,400 738 Climbing Houston Center
Sat 08:29:25 AM 28.9081 -98.2992 169° South 166 191 15,200 836 Climbing Houston Center
Sat 08:30:26 AM 28.8633 -98.2886 168° South 164 189 16,100 836 Climbing Houston Center
Sat 08:31:27 AM 28.8228 -98.2750 164° South 153 176 16,900 787 Climbing Houston Center
Sat 08:32:28 AM 28.7792 -98.2656 169° South 148 170 17,700 488 Climbing Houston Center
Sat 08:33:30 AM 28.7375 -98.2544 167° South 153 176 17,900 390 Climbing Houston Center
Sat 08:34:31 AM 28.7025 -98.2439 165° South 150 173 18,500 689 Climbing Houston Center
Sat 08:35:32 AM 28.6542 -98.2314 167° South 152 175 19,300 689 Climbing Houston Center
Sat 08:36:33 AM 28.6144 -98.2206 167° South 148 170 19,900 639 Climbing Houston Center
Sat 08:37:34 AM 28.5736 -98.2114 169° South 149 171 20,600 639 Climbing Houston Center
Sat 08:38:35 AM 28.5342 -98.2006 166° South 147 169 21,200 590 Climbing Houston Center
Sat 08:39:36 AM 28.4917 -98.1917 170° South 148 170 21,800 393 Climbing Houston Center
Sat 08:40:37 AM 28.4486 -98.1833 170° South 155 178 22,000 98 Climbing Houston Center
Sat 08:41:38 AM 28.3981 -98.1700 167° South 182 209 22,000  Level Houston Center
Sat 08:42:39 AM 28.3436 -98.1528 164° South 198 228 22,000  Level Houston Center
Sat 08:43:41 AM 28.2881 -98.1422 171° South 203 234 22,000  Level Houston Center
Sat 08:44:42 AM 28.2294 -98.1267 167° South 211 243 22,000  Level Houston Center
Sat 08:45:43 AM 28.1625 -98.1089 167° South 214 246 22,000  Level Houston Center
Sat 08:46:44 AM 28.1044 -98.0964 169° South 213 245 22,000  Level Houston Center
Sat 08:47:45 AM 28.0469 -98.0817 167° South 212 244 22,000  Level Houston Center
Sat 08:48:47 AM 27.9850 -98.0650 167° South 214 246 22,000  Level Houston Center
Sat 08:49:48 AM 27.9256 -98.0517 169° South 216 249 22,000  Level Houston Center
Sat 08:50:49 AM 27.8678 -98.0372 168° South 213 245 22,000  Level Houston Center
Sat 08:51:50 AM 27.8094 -98.0206 166° South 214 246 22,000  Level Houston Center
Sat 08:52:52 AM 27.7497 -98.0081 170° South 217 250 22,000  Level Houston Center
Sat 08:53:53 AM 27.6919 -97.9933 167° South 213 245 22,000  Level Houston Center
Sat 08:54:54 AM 27.6339 -97.9772 166° South 216 249 22,000  Level Houston Center
Sat 08:55:56 AM 27.5672 -97.9639 170° South 215 247 22,000  Level Houston Center
Sat 08:56:57 AM 27.5083 -97.9494 168° South 215 247 22,000  Level Houston Center
Sat 08:57:58 AM 27.4486 -97.9314 165° South 222 255 22,000  Level Houston Center
Sat 08:58:59 AM 27.3831 -97.9169 169° South 221 254 22,000  Level Houston Center
Sat 09:00:01 AM 27.3231 -97.9006 166° South 217 250 22,000  Level Houston Center
Sat 09:01:02 AM 27.2625 -97.8864 168° South 216 249 22,000  Level Houston Center
Sat 09:02:03 AM 27.2033 -97.8711 167° South 220 253 22,000  Level Houston Center
Sat 09:03:05 AM 27.1417 -97.8561 168° South 221 254 22,000  Level Houston Center
Sat 09:04:06 AM 27.0811 -97.8406 167° South 216 249 22,000  Level Houston Center
Sat 09:05:08 AM 27.0192 -97.8253 168° South 219 252 22,000  Level Houston Center
Sat 09:06:09 AM 26.9600 -97.8108 168° South 219 252 22,000  Level Houston Center
Sat 09:07:10 AM 26.9008 -97.7939 166° South 216 249 22,000  Level Houston Center
Sat 09:08:12 AM 26.8381 -97.7806 169° South 215 247 22,000  Level Houston Center
Sat 09:09:13 AM 26.7786 -97.7658 168° South 218 251 22,000  Level Houston Center
Sat 09:10:14 AM 26.7186 -97.7503 167° South 221 254 22,000  Level Houston Center
Sat 09:11:16 AM 26.6542 -97.7356 168° South 220 253 22,000  Level Houston Center
Sat 09:12:17 AM 26.5947 -97.7206 167° South 219 252 22,000  Level Houston Center
Sat 09:13:19 AM 26.5339 -97.7064 168° South 222 255 22,000  Level Houston Center
Sat 09:14:20 AM 26.4739 -97.6908 167° South 221 254 22,000  Level Houston Center
Sat 09:15:22 AM 26.4086 -97.6753 168° South 221 254 22,000  Level Houston Center
Sat 09:16:23 AM 26.3481 -97.6597 167° South 221 254 22,000  Level Houston Center
Sat 09:17:24 AM 26.2875 -97.6456 168° South 220 253 22,000  Level Houston Center
Sat 09:18:26 AM 26.2264 -97.6347 171° South 221 254 22,000  Level Houston Center
Sat 09:19:27 AM 26.1647 -97.6189 167° South 225 259 22,000  Level Houston Center
Sat 09:20:29 AM 26.0983 -97.6050 169° South 223 257 22,000  Level Houston Center
Sat 09:21:30 AM 26.0378 -97.5917 169° South 220 253 22,000  Level Houston Center
Sat 09:22:32 AM 25.9778 -97.5778 168° South 219 252 22,000  Level Houston Center
Sat 09:23:33 AM 25.9244 -97.5461 152° Southeast 229 264 22,000  Level Houston Center
Sat 09:24:35 AM 25.9778 -97.3911 69° East 335 386 22,000  Level Houston Center
Sat 09:25:36 AM 25.9367 -97.3447 135° Southeast 220 253 22,000  Level Houston Center
Sat 09:26:38 AM 25.7403 -97.5161 218° Southwest 213 245 22,000  Level Houston Center
Sat 09:27:39 AM 25.6761 -97.5214 184° South 215 247 22,000  Level Houston Center
Sat 09:28:41 AM 25.6108 -97.5406 195° South 266 306 22,000  Level Houston Center
Sat 09:30:00 AM 25.5302 -97.5421 186° South  Level FlightAware Approximate
Sat 09:37:00 AM 25.1050 -97.5952 186° South  Level FlightAware Approximate
Sat 09:38:00 AM 25.0441 -97.6022 185° South  Level FlightAware Approximate
Sat 09:39:00 AM 24.9832 -97.6080 185° South  Level FlightAware Approximate
Sat 09:40:00 AM 24.9223 -97.6139 185° South  Level FlightAware Approximate
Sat 09:41:00 AM 24.8615 -97.6197 185° South  Level FlightAware Approximate
Sat 09:42:00 AM 24.8006 -97.6256 185° South  Level FlightAware Approximate
Sat 09:43:00 AM 24.7397 -97.6314 185° South  Level FlightAware Approximate
Sat 09:44:00 AM 24.6787 -97.6372 185° South  Level FlightAware Approximate
Sat 09:45:00 AM 24.6178 -97.6431 185° South  Level FlightAware Approximate
Sat 09:46:00 AM 24.5569 -97.6489 185° South  Level FlightAware Approximate
Sat 09:47:00 AM 24.4960 -97.6547 185° South  Level FlightAware Approximate
Sat 09:48:00 AM 24.4351 -97.6605 185° South  Level FlightAware Approximate
Sat 09:49:00 AM 24.3742 -97.6663 185° South  Level FlightAware Approximate
Sat 09:50:00 AM 24.3133 -97.6721 185° South  Level FlightAware Approximate
Sat 09:51:00 AM 24.2524 -97.6779 185° South  Level FlightAware Approximate
Sat 09:52:00 AM 24.1915 -97.6837 185° South  Level FlightAware Approximate
Sat 09:53:00 AM 24.1306 -97.6895 185° South  Level FlightAware Approximate
Sat 09:54:00 AM 24.0697 -97.6953 185° South  Level FlightAware Approximate
Sat 09:55:00 AM 24.0088 -97.7010 185° South  Level FlightAware Approximate
Sat 09:56:00 AM 23.9478 -97.7068 185° South  Level FlightAware Approximate
Sat 09:57:00 AM 23.8869 -97.7125 185° South  Level FlightAware Approximate
Sat 09:58:00 AM 23.8260 -97.7183 185° South  Level FlightAware Approximate
Sat 09:59:00 AM 23.7651 -97.7241 185° South  Level FlightAware Approximate
Sat 10:00:00 AM 23.7042 -97.7298 185° South  Level FlightAware Approximate
Sat 10:01:00 AM 23.6433 -97.7350 184° South  Level FlightAware Approximate
Sat 10:02:00 AM 23.5823 -97.7394 184° South  Level FlightAware Approximate
Sat 10:03:00 AM 23.5213 -97.7437 184° South  Level FlightAware Approximate
Sat 10:04:00 AM 23.4603 -97.7481 184° South  Level FlightAware Approximate
Sat 10:05:00 AM 23.3993 -97.7525 184° South  Level FlightAware Approximate
Sat 10:06:00 AM 23.3383 -97.7568 184° South  Level FlightAware Approximate
Sat 10:07:00 AM 23.2773 -97.7612 184° South  Level FlightAware Approximate
Sat 10:08:00 AM 23.2163 -97.7655 184° South  Level FlightAware Approximate
Sat 10:09:00 AM 23.1553 -97.7684 188° South  Level FlightAware Approximate
Sat 10:10:00 AM 23.0947 -97.7777 188° South  Level FlightAware Approximate
Sat 10:11:00 AM 23.0342 -97.7871 188° South  Level FlightAware Approximate
Sat 10:12:00 AM 22.9737 -97.7964 188° South  Level FlightAware Approximate
Sat 10:13:00 AM 22.9129 -97.8028 184° South  Level FlightAware Approximate
Sat 10:14:00 AM 22.8519 -97.8074 184° South  Level FlightAware Approximate
Sat 10:15:00 AM 22.7909 -97.8120 184° South  Level FlightAware Approximate
Sat 10:16:00 AM 22.7299 -97.8166 184° South  Level FlightAware Approximate
Sat 10:17:00 AM 22.6689 -97.8211 184° South  Level FlightAware Approximate
Sat 10:18:00 AM 22.6079 -97.8257 184° South  Level FlightAware Approximate
Sat 10:19:00 AM 22.5469 -97.8303 184° South  Level FlightAware Approximate
Sat 10:20:00 AM 22.4859 -97.8349 184° South  Level FlightAware Approximate
Sat 10:21:00 AM 22.4249 -97.8394 184° South  Level FlightAware Approximate
Sat 10:22:00 AM 22.3640 -97.8440 184° South  Level FlightAware Approximate
Sat 10:23:00 AM 22.3030 -97.8485 184° South  Level FlightAware Approximate
Sat 10:24:00 AM 22.2462 -97.8302 154° Southeast  Level FlightAware Approximate
Sat 10:25:00 AM 22.1914 -97.8010 154° Southeast  Level FlightAware Approximate
Sat 10:26:00 AM 22.1365 -97.7718 154° Southeast  Level FlightAware Approximate
Sat 10:27:00 AM 22.0817 -97.7426 154° Southeast  Level FlightAware Approximate
Sat 10:28:00 AM 22.0268 -97.7134 154° Southeast  Level FlightAware Approximate
Sat 10:29:00 AM 21.9720 -97.6843 154° Southeast  Level FlightAware Approximate
Sat 10:30:00 AM 21.9171 -97.6552 154° Southeast  Level FlightAware Approximate
Sat 10:31:00 AM 21.8623 -97.6261 154° Southeast  Level FlightAware Approximate
Sat 10:32:00 AM 21.8074 -97.5971 154° Southeast  Level FlightAware Approximate
Sat 10:33:00 AM 21.7526 -97.5680 154° Southeast  Level FlightAware Approximate
Sat 10:34:00 AM 21.6977 -97.5390 154° Southeast  Level FlightAware Approximate
Sat 10:35:00 AM 21.6428 -97.5100 154° Southeast  Level FlightAware Approximate
Sat 10:36:00 AM 21.5879 -97.4811 154° Southeast  Level FlightAware Approximate
Sat 10:37:00 AM 21.5330 -97.4521 154° Southeast  Level FlightAware Approximate
Sat 10:38:00 AM 21.4781 -97.4232 154° Southeast  Level FlightAware Approximate
Sat 10:39:00 AM 21.4232 -97.3943 154° Southeast  Level FlightAware Approximate
Sat 10:40:00 AM 21.3683 -97.3654 154° Southeast  Level FlightAware Approximate
Sat 10:41:00 AM 21.3134 -97.3365 154° Southeast  Level FlightAware Approximate
Sat 10:42:00 AM 21.2585 -97.3077 154° Southeast  Level FlightAware Approximate
Sat 10:43:00 AM 21.2036 -97.2789 154° Southeast  Level FlightAware Approximate
Sat 10:44:00 AM 21.1487 -97.2501 154° Southeast  Level FlightAware Approximate
Sat 10:45:00 AM 21.0938 -97.2213 154° Southeast  Level FlightAware Approximate
Sat 10:46:00 AM 21.0388 -97.1925 154° Southeast  Level FlightAware Approximate
Sat 10:47:00 AM 20.9839 -97.1638 154° Southeast  Level FlightAware Approximate
Sat 10:48:00 AM 20.9289 -97.1351 154° Southeast  Level FlightAware Approximate
Sat 10:49:00 AM 20.8740 -97.1064 154° Southeast  Level FlightAware Approximate
Sat 10:50:00 AM 20.8190 -97.0777 154° Southeast  Level FlightAware Approximate
Sat 10:51:00 AM 20.7641 -97.0491 154° Southeast  Level FlightAware Approximate
Sat 10:52:00 AM 20.7091 -97.0204 154° Southeast  Level FlightAware Approximate
Sat 10:53:00 AM 20.6542 -96.9918 154° Southeast  Level FlightAware Approximate
Sat 10:54:00 AM 20.5992 -96.9632 154° Southeast  Level FlightAware Approximate
Sat 10:55:00 AM 20.5442 -96.9347 154° Southeast  Level FlightAware Approximate
Sat 10:56:00 AM 20.4893 -96.9061 154° Southeast  Level FlightAware Approximate
Sat 10:57:00 AM 20.4343 -96.8776 154° Southeast  Level FlightAware Approximate
Sat 10:58:00 AM 20.3793 -96.8491 154° Southeast  Level FlightAware Approximate
Sat 10:59:00 AM 20.3243 -96.8206 154° Southeast  Level FlightAware Approximate
Sat 11:00:00 AM 20.2678 -96.7957 158° South  Level FlightAware Approximate
Sat 11:01:00 AM 20.2111 -96.7714 158° South  Level FlightAware Approximate
Sat 11:02:00 AM 20.1563 -96.7426 153° Southeast  Level FlightAware Approximate
Sat 11:03:00 AM 20.1020 -96.7127 153° Southeast  Level FlightAware Approximate
Sat 11:04:00 AM 20.0477 -96.6828 153° Southeast  Level FlightAware Approximate
Sat 11:05:00 AM 19.9934 -96.6530 153° Southeast  Level FlightAware Approximate
Sat 11:06:00 AM 19.9391 -96.6232 153° Southeast  Level FlightAware Approximate
Sat 11:07:00 AM 19.8847 -96.5933 153° Southeast  Level FlightAware Approximate
Sat 11:08:00 AM 19.8304 -96.5636 153° Southeast  Level FlightAware Approximate
Sat 11:09:00 AM 19.7761 -96.5338 153° Southeast  Level FlightAware Approximate
Sat 11:10:00 AM 19.7217 -96.5040 153° Southeast  Level FlightAware Approximate
Sat 11:11:00 AM 19.6674 -96.4743 153° Southeast  Level FlightAware Approximate
Sat 11:12:00 AM 19.6130 -96.4446 153° Southeast  Level FlightAware Approximate
Sat 11:13:00 AM 19.5587 -96.4149 153° Southeast  Level FlightAware Approximate
Sat 11:14:00 AM 19.5043 -96.3852 153° Southeast  Level FlightAware Approximate
Sat 11:15:00 AM 19.4499 -96.3556 153° Southeast  Level FlightAware Approximate
Sat 11:16:00 AM 19.3956 -96.3260 153° Southeast  Level FlightAware Approximate
Sat 11:17:00 AM 19.3412 -96.2963 153° Southeast  Level FlightAware Approximate
Sat 11:18:00 AM 19.2868 -96.2667 153° Southeast  Level FlightAware Approximate
Sat 11:19:00 AM 19.2324 -96.2372 153° Southeast  Level FlightAware Approximate
Sat 11:20:00 AM 19.1780 -96.2076 153° Southeast  Level FlightAware Approximate
Sat 11:21:00 AM 19.1273 -96.1737 124° Southeast  Level FlightAware Approximate
Sat 11:22:00 AM 19.0933 -96.1199 124° Southeast  Level FlightAware Approximate
Sat 11:23:00 AM 19.0593 -96.0662 124° Southeast  Level FlightAware Approximate
Sat 11:24:00 AM 19.0252 -96.0125 124° Southeast  Level FlightAware Approximate
Sat 11:25:00 AM 18.9912 -95.9587 124° Southeast  Level FlightAware Approximate
Sat 11:26:00 AM 18.9571 -95.9051 124° Southeast  Level FlightAware Approximate
Sat 11:27:00 AM 18.9231 -95.8514 124° Southeast  Level FlightAware Approximate
Sat 11:28:00 AM 18.8890 -95.7977 124° Southeast  Level FlightAware Approximate
Sat 11:29:00 AM 18.8549 -95.7441 124° Southeast  Level FlightAware Approximate
Sat 11:30:00 AM 18.8208 -95.6905 124° Southeast  Level FlightAware Approximate
Sat 11:31:00 AM 18.7866 -95.6369 124° Southeast  Level FlightAware Approximate
Sat 11:32:00 AM 18.7525 -95.5834 124° Southeast  Level FlightAware Approximate
Sat 11:33:00 AM 18.7183 -95.5298 124° Southeast  Level FlightAware Approximate
Sat 11:34:00 AM 18.6842 -95.4763 124° Southeast  Level FlightAware Approximate
Sat 11:35:00 AM 18.6500 -95.4228 124° Southeast  Level FlightAware Approximate
Sat 11:36:00 AM 18.6158 -95.3693 124° Southeast  Level FlightAware Approximate
Sat 11:37:00 AM 18.5815 -95.3159 124° Southeast  Level FlightAware Approximate
Sat 11:38:00 AM 18.5471 -95.2627 128° Southeast  Level FlightAware Approximate
Sat 11:39:00 AM 18.5098 -95.2116 128° Southeast  Level FlightAware Approximate
Sat 11:40:00 AM 18.4725 -95.1605 128° Southeast  Level FlightAware Approximate
Sat 11:41:00 AM 18.4352 -95.1094 128° Southeast  Level FlightAware Approximate
Sat 11:42:00 AM 18.3979 -95.0584 128° Southeast  Level FlightAware Approximate
Sat 11:43:00 AM 18.3606 -95.0074 128° Southeast  Level FlightAware Approximate
Sat 11:44:00 AM 18.3232 -94.9564 128° Southeast  Level FlightAware Approximate
Sat 11:45:00 AM 18.2859 -94.9054 128° Southeast  Level FlightAware Approximate
Sat 11:46:00 AM 18.2485 -94.8544 128° Southeast  Level FlightAware Approximate
Sat 11:47:00 AM 18.2111 -94.8035 128° Southeast  Level FlightAware Approximate
Sat 11:48:00 AM 18.1737 -94.7526 128° Southeast  Level FlightAware Approximate
Sat 11:49:00 AM 18.1363 -94.7017 128° Southeast  Level FlightAware Approximate
Sat 11:50:00 AM 18.0989 -94.6509 128° Southeast  Level FlightAware Approximate
Sat 11:51:00 AM 18.0614 -94.6000 128° Southeast  Level FlightAware Approximate
Sat 11:52:00 AM 18.0240 -94.5492 128° Southeast  Level FlightAware Approximate
Sat 11:53:00 AM 17.9837 -94.5011 138° Southeast  Level FlightAware Approximate
Sat 11:54:00 AM 17.9385 -94.4579 138° Southeast  Level FlightAware Approximate
Sat 11:55:00 AM 17.8932 -94.4147 138° Southeast  Level FlightAware Approximate
Sat 11:56:00 AM 17.8479 -94.3716 138° Southeast  Level FlightAware Approximate
Sat 11:57:00 AM 17.8026 -94.3285 138° Southeast  Level FlightAware Approximate
Sat 11:58:00 AM 17.7573 -94.2853 138° Southeast  Level FlightAware Approximate
Sat 11:59:00 AM 17.7120 -94.2422 138° Southeast  Level FlightAware Approximate
Sat 12:00:00 PM 17.6667 -94.1992 138° Southeast  Level FlightAware Approximate
Sat 12:01:00 PM 17.6214 -94.1561 138° Southeast  Level FlightAware Approximate
Sat 12:02:00 PM 17.5760 -94.1131 138° Southeast  Level FlightAware Approximate
Sat 12:03:00 PM 17.5307 -94.0701 138° Southeast  Level FlightAware Approximate
Sat 12:04:00 PM 17.4853 -94.0271 138° Southeast  Level FlightAware Approximate
Sat 12:05:00 PM 17.4400 -93.9842 138° Southeast  Level FlightAware Approximate
Sat 12:06:00 PM 17.3946 -93.9412 138° Southeast  Level FlightAware Approximate
Sat 12:07:00 PM 17.3492 -93.8983 138° Southeast  Level FlightAware Approximate
Sat 12:08:00 PM 17.3038 -93.8554 138° Southeast  Level FlightAware Approximate
Sat 12:09:00 PM 17.2584 -93.8125 138° Southeast  Level FlightAware Approximate
Sat 12:10:00 PM 17.2130 -93.7697 138° Southeast  Level FlightAware Approximate
Sat 12:11:00 PM 17.1676 -93.7268 138° Southeast  Level FlightAware Approximate
Sat 12:12:00 PM 17.1222 -93.6840 138° Southeast  Level FlightAware Approximate
Sat 12:13:00 PM 17.0767 -93.6412 138° Southeast  Level FlightAware Approximate
Sat 12:14:00 PM 17.0313 -93.5985 138° Southeast  Level FlightAware Approximate
Sat 12:15:00 PM 16.9858 -93.5557 138° Southeast  Level FlightAware Approximate
Sat 12:16:00 PM 16.9404 -93.5130 138° Southeast  Level FlightAware Approximate
Sat 12:17:00 PM 16.8949 -93.4703 138° Southeast  Level FlightAware Approximate
Sat 12:18:00 PM 16.8494 -93.4276 138° Southeast  Level FlightAware Approximate
Sat 12:19:00 PM 16.8039 -93.3849 138° Southeast  Level FlightAware Approximate
Sat 12:20:00 PM 16.7598 -93.3409 128° Southeast  Level FlightAware Approximate
Sat 12:21:00 PM 16.7220 -93.2908 128° Southeast  Level FlightAware Approximate
Sat 12:22:00 PM 16.6841 -93.2406 128° Southeast  Level FlightAware Approximate
Sat 12:23:00 PM 16.6462 -93.1905 128° Southeast  Level FlightAware Approximate
Sat 12:24:00 PM 16.6084 -93.1405 128° Southeast  Level FlightAware Approximate
Sat 12:25:00 PM 16.5705 -93.0904 128° Southeast  Level FlightAware Approximate
Sat 12:26:00 PM 16.5326 -93.0404 128° Southeast  Level FlightAware Approximate
Sat 12:27:00 PM 16.4946 -92.9903 128° Southeast  Level FlightAware Approximate
Sat 12:28:00 PM 16.4567 -92.9403 128° Southeast  Level FlightAware Approximate
Sat 12:29:00 PM 16.4188 -92.8904 128° Southeast  Level FlightAware Approximate
Sat 12:30:00 PM 16.3808 -92.8404 128° Southeast  Level FlightAware Approximate
Sat 12:31:00 PM 16.3429 -92.7905 128° Southeast  Level FlightAware Approximate
Sat 12:32:00 PM 16.3049 -92.7405 128° Southeast  Level FlightAware Approximate
Sat 12:33:00 PM 16.2669 -92.6906 128° Southeast  Level FlightAware Approximate
Sat 12:34:00 PM 16.2289 -92.6408 128° Southeast  Level FlightAware Approximate
Sat 12:35:00 PM 16.1909 -92.5909 128° Southeast  Level FlightAware Approximate
Sat 12:36:00 PM 16.1529 -92.5411 128° Southeast  Level FlightAware Approximate
Sat 12:37:00 PM 16.1148 -92.4912 128° Southeast  Level FlightAware Approximate
Sat 12:38:00 PM 16.0768 -92.4414 128° Southeast  Level FlightAware Approximate
Sat 12:39:00 PM 16.0387 -92.3916 128° Southeast  Level FlightAware Approximate
Sat 12:40:00 PM 16.0007 -92.3419 129° Southeast  Level FlightAware Approximate
Sat 12:41:00 PM 15.9626 -92.2921 129° Southeast  Level FlightAware Approximate
Sat 12:42:00 PM 15.9245 -92.2424 129° Southeast  Level FlightAware Approximate
Sat 12:43:00 PM 15.8864 -92.1927 129° Southeast  Level FlightAware Approximate
Sat 12:44:00 PM 15.8483 -92.1430 129° Southeast  Level FlightAware Approximate
Sat 12:45:00 PM 15.8101 -92.0933 129° Southeast  Level FlightAware Approximate
Sat 12:46:00 PM 15.7720 -92.0436 129° Southeast  Level FlightAware Approximate
Sat 12:47:00 PM 15.7338 -91.9940 129° Southeast  Level FlightAware Approximate
Sat 12:48:00 PM 15.6957 -91.9444 129° Southeast  Level FlightAware Approximate
Sat 12:49:00 PM 15.6576 -91.8948 129° Southeast  Level FlightAware Approximate
Sat 12:50:00 PM 15.6194 -91.8452 129° Southeast  Level FlightAware Approximate
Sat 12:51:00 PM 15.5813 -91.7956 129° Southeast  Level FlightAware Approximate
Sat 12:52:00 PM 15.5431 -91.7460 129° Southeast  Level FlightAware Approximate
Sat 12:53:00 PM 15.5036 -91.6976 131° Southeast  Level FlightAware Approximate
Sat 12:54:00 PM 15.4636 -91.6496 131° Southeast  Level FlightAware Approximate
Sat 12:55:00 PM 15.4252 -91.6003 128° Southeast  Level FlightAware Approximate
Sat 12:56:00 PM 15.3877 -91.5502 128° Southeast  Level FlightAware Approximate
Sat 12:57:00 PM 15.3502 -91.5001 128° Southeast  Level FlightAware Approximate
Sat 12:58:00 PM 15.3126 -91.4501 128° Southeast  Level FlightAware Approximate
Sat 12:59:00 PM 15.2751 -91.4001 128° Southeast  Level FlightAware Approximate
Sat 01:00:00 PM 15.2372 -91.3504 129° Southeast  Level FlightAware Approximate
Sat 01:01:00 PM 15.1986 -91.3012 129° Southeast  Level FlightAware Approximate
Sat 01:02:00 PM 15.1600 -91.2521 129° Southeast  Level FlightAware Approximate
Sat 01:03:00 PM 15.1214 -91.2030 129° Southeast  Level FlightAware Approximate
Sat 01:04:00 PM 15.0828 -91.1539 129° Southeast  Level FlightAware Approximate
Sat 01:05:00 PM 15.0449 -91.1043 128° Southeast  Level FlightAware Approximate
Sat 01:06:00 PM 15.0074 -91.0543 128° Southeast  Level FlightAware Approximate
Sat 01:07:00 PM 14.9699 -91.0043 128° Southeast  Level FlightAware Approximate
Sat 01:08:00 PM 14.9310 -90.9554 130° Southeast  Level FlightAware Approximate
Sat 01:09:00 PM 14.8920 -90.9067 130° Southeast  Level FlightAware Approximate
Sat 01:10:00 PM 14.8531 -90.8580 130° Southeast  Level FlightAware Approximate
Sat 01:11:00 PM 14.8148 -90.8086 128° Southeast  Level FlightAware Approximate
Sat 01:12:00 PM 14.7774 -90.7587 128° Southeast  Level FlightAware Approximate
Sat 01:13:00 PM 14.7399 -90.7087 128° Southeast  Level FlightAware Approximate
Sat 01:14:00 PM 14.6960 -90.6724 128° Southeast  Level FlightAware Approximate
Sat 01:15:00 PM 14.6585 -90.6224 128° Southeast  Level FlightAware Approximate
Sat 01:16:00 PM 14.6210 -90.5725 128° Southeast  Level FlightAware Approximate
Sat 01:17:00 PM 14.5860 -90.5207 125° Southeast  Level FlightAware Approximate
Sat 01:18:00 PM 14.5833 -90.5275 180° South  Level Estimated
Sat 01:19:00 PM 14.5833 -90.5275 180° South  Level Estimated
Sat 01:20:00 PM 14.5833 -90.5275 180° South  Level Estimated
Sat 01:21:00 PM 14.5833 -90.5275 180° South  Level Estimated
Sat 01:22:00 PM 14.5833 -90.5275 180° South  Level Estimated
Sat 01:23:00 PM 14.5833 -90.5275 180° South  Level Estimated
Sat 01:24:00 PM 14.5833 -90.5275 180° South  Level Estimated
Sat 01:25:00 PM 14.5833 -90.5275 180° South  Level Estimated
Sat 01:26:00 PM 14.5833 -90.5275 180° South  Level Estimated

Login

Don't have an account? Register now (free) for customized features, flight alerts, and more!